Time;durP1;ratioP1;P1;durP2;ratioP2;P2;SDS_P1;SDS_P2;PMS_P1;PMS_P2;Temp;Humidity;BMP_temperature;BMP_pressure;BME280_temperature;BME280_humidity;BME280_pressure;Samples;Min_cycle;Max_cycle;Signal;HPM_P1;HPM_P2
2021/04/04 00:01:06;;;;;;;26.58;14.60;;;;;;;2.75;65.46;101013.24;121405;1159;23438;-74
2021/04/04 00:03:34;;;;;;;24.63;13.50;;;;;;;2.72;65.83;101024.70;121452;1157;22572;-76
2021/04/04 00:06:02;;;;;;;25.90;14.48;;;;;;;2.71;66.04;101019.61;121181;1159;22574;-75
2021/04/04 00:08:31;;;;;;;22.90;14.20;;;;;;;2.66;65.96;101017.28;121350;1155;24773;-75
2021/04/04 00:10:59;;;;;;;30.58;14.28;;;;;;;2.60;66.26;101017.70;121614;1155;22553;-75
2021/04/04 00:13:28;;;;;;;22.15;13.38;;;;;;;2.55;66.16;101011.94;121938;1158;22555;-76
2021/04/04 00:15:57;;;;;;;23.70;13.98;;;;;;;2.51;66.36;101005.25;121708;1152;22558;-75
2021/04/04 00:18:25;;;;;;;25.58;15.75;;;;;;;2.45;66.29;101010.87;122390;1152;24683;-74
2021/04/04 00:20:53;;;;;;;23.95;14.60;;;;;;;2.40;66.57;101012.92;121693;1155;22570;-75
2021/04/04 00:23:22;;;;;;;23.38;14.58;;;;;;;2.36;66.56;101020.94;121641;1155;24827;-74
2021/04/04 00:25:50;;;;;;;22.93;14.00;;;;;;;2.31;66.83;101020.41;121615;1155;24723;-74
2021/04/04 00:28:19;;;;;;;23.02;14.05;;;;;;;2.28;66.77;101018.00;121619;1157;22562;-76
2021/04/04 00:30:47;;;;;;;23.68;14.18;;;;;;;2.26;66.74;101014.64;121662;1155;22566;-76
2021/04/04 00:33:15;;;;;;;26.75;13.73;;;;;;;2.25;66.92;101022.58;121976;1155;22561;-75
2021/04/04 00:35:43;;;;;;;24.83;14.58;;;;;;;2.23;67.12;101017.47;121638;1158;22569;-74
2021/04/04 00:38:13;;;;;;;25.05;13.25;;;;;;;2.20;67.23;101022.02;121668;1153;22559;-75
2021/04/04 00:40:41;;;;;;;23.18;12.78;;;;;;;2.17;66.90;101020.47;122140;1152;22544;-75
2021/04/04 00:43:11;;;;;;;24.15;13.10;;;;;;;2.16;67.32;101023.98;122167;1154;22627;-75
2021/04/04 00:45:40;;;;;;;20.70;12.50;;;;;;;2.11;67.20;101024.28;122111;1152;22541;-75
2021/04/04 00:48:11;;;;;;;23.00;14.10;;;;;;;2.07;67.21;101022.81;122102;1152;22562;-75
2021/04/04 00:50:41;;;;;;;25.63;14.00;;;;;;;2.00;67.24;101037.16;122105;1152;25173;-75
2021/04/04 00:53:10;;;;;;;25.10;13.95;;;;;;;1.93;66.84;101035.02;122218;1152;23639;-75
2021/04/04 00:55:39;;;;;;;25.50;13.93;;;;;;;1.86;67.37;101030.17;122134;1152;22613;-74
2021/04/04 00:58:07;;;;;;;24.58;14.90;;;;;;;1.81;67.40;101029.64;122061;1154;22648;-73
2021/04/04 01:00:35;;;;;;;25.10;15.35;;;;;;;1.79;67.59;101033.27;122091;1152;22531;-75
2021/04/04 01:03:04;;;;;;;23.53;14.70;;;;;;;1.75;67.48;101029.19;122103;1154;23553;-74
2021/04/04 01:05:50;;;;;;;21.75;13.98;;;;;;;1.71;67.63;101030.31;122206;1152;23326;-74
2021/04/04 01:08:18;;;;;;;24.58;14.43;;;;;;;1.66;67.66;101022.76;121679;1155;24725;-74
2021/04/04 01:10:48;;;;;;;25.33;14.95;;;;;;;1.63;67.80;101033.36;121631;1155;22627;-74
2021/04/04 01:13:49;;;;;;;30.80;17.08;;;;;;;1.60;67.87;101037.02;121617;1155;22625;-75
2021/04/04 01:16:26;;;;;;;29.10;15.50;;;;;;;1.54;67.93;101034.78;121584;1155;22606;-75
2021/04/04 01:19:07;;;;;;;26.73;14.27;;;;;;;1.50;67.96;101037.64;121709;1155;22637;-74
2021/04/04 01:21:51;;;;;;;25.33;15.68;;;;;;;1.44;67.90;101036.27;121575;1155;24534;-75
2021/04/04 01:24:49;;;;;;;28.55;15.10;;;;;;;1.40;68.23;101037.39;121645;1155;22570;-74
2021/04/04 01:27:47;;;;;;;24.18;14.30;;;;;;;1.36;68.16;101031.50;122127;1152;22523;-75
2021/04/04 01:30:17;;;;;;;26.25;14.23;;;;;;;1.33;68.38;101029.11;122344;1152;24686;-75
2021/04/04 01:32:49;;;;;;;20.93;13.28;;;;;;;1.32;68.28;101030.02;122084;1154;22538;-75
2021/04/04 01:35:20;;;;;;;27.35;15.75;;;;;;;1.31;68.17;101027.52;122205;1155;22629;-75
2021/04/04 01:37:53;;;;;;;26.13;16.37;;;;;;;1.28;68.28;101027.70;122109;1155;23422;-74
2021/04/04 01:40:24;;;;;;;25.43;15.23;;;;;;;1.24;68.33;101027.05;122230;1152;22678;-74
2021/04/04 01:42:56;;;;;;;27.93;18.08;;;;;;;1.21;68.54;101028.99;121712;1157;22861;-73
2021/04/04 01:45:25;;;;;;;26.60;15.38;;;;;;;1.16;68.45;101024.88;121989;1155;22876;-75
2021/04/04 01:47:58;;;;;;;28.33;16.40;;;;;;;1.13;68.59;101030.29;121585;1157;22556;-74
2021/04/04 01:50:29;;;;;;;24.63;14.40;;;;;;;1.12;68.78;101027.76;121577;1154;24748;-75
2021/04/04 01:53:00;;;;;;;27.73;14.90;;;;;;;1.11;68.85;101028.70;121565;1157;25263;-75
2021/04/04 01:55:30;;;;;;;28.28;15.68;;;;;;;1.10;68.73;101029.60;121692;1155;22543;-75
2021/04/04 01:58:02;;;;;;;21.18;14.03;;;;;;;1.06;68.82;101021.14;121739;1155;23301;-76
2021/04/04 02:00:30;;;;;;;22.68;15.68;;;;;;;1.04;68.92;101029.98;121568;1155;22555;-75
2021/04/04 02:03:00;;;;;;;26.33;16.88;;;;;;;1.02;69.09;101027.46;121644;1155;26138;-75
2021/04/04 02:05:29;;;;;;;19.93;14.80;;;;;;;1.01;69.22;101027.56;121996;1155;22657;-76
2021/04/04 02:07:59;;;;;;;27.03;16.00;;;;;;;0.99;69.07;101032.84;122117;1154;23461;-75
2021/04/04 02:10:29;;;;;;;22.43;14.23;;;;;;;0.98;69.26;101035.55;122101;1152;22541;-76
2021/04/04 02:13:00;;;;;;;27.10;16.00;;;;;;;0.96;69.24;101038.22;122190;1152;22540;-76
2021/04/04 02:15:32;;;;;;;26.03;15.88;;;;;;;0.96;69.35;101026.98;122143;1154;22533;-76
2021/04/04 02:18:01;;;;;;;24.53;17.33;;;;;;;0.92;69.37;101032.36;122083;1152;24515;-75
2021/04/04 02:20:32;;;;;;;26.80;17.40;;;;;;;0.91;69.60;101033.30;122208;1152;22539;-75
2021/04/04 02:23:05;;;;;;;25.08;16.78;;;;;;;0.88;69.42;101030.88;122430;1154;22544;-75
2021/04/04 02:25:33;;;;;;;28.13;18.20;;;;;;;0.87;69.50;101036.17;122095;1152;22630;-75
2021/04/04 02:28:03;;;;;;;23.78;15.48;;;;;;;0.85;69.69;101031.05;122077;1152;22542;-76
2021/04/04 02:30:33;;;;;;;25.88;17.30;;;;;;;0.81;69.60;101024.35;122078;1154;22546;-75
2021/04/04 02:33:12;;;;;;;25.30;16.63;;;;;;;0.77;69.53;101020.27;122158;1152;22592;-76
2021/04/04 02:35:45;;;;;;;26.25;15.08;;;;;;;0.72;69.73;101018.84;122128;1152;22556;-75
2021/04/04 02:38:21;;;;;;;26.00;18.03;;;;;;;0.67;69.75;101016.52;122148;1154;22541;-76
2021/04/04 02:40:51;;;;;;;25.45;16.88;;;;;;;0.66;69.91;101014.81;122361;1152;22533;-76
2021/04/04 02:43:27;;;;;;;25.03;17.20;;;;;;;0.63;70.11;101009.79;122190;1152;24674;-76
2021/04/04 02:45:58;;;;;;;25.38;16.65;;;;;;;0.59;69.93;101011.73;122176;1152;22529;-76
2021/04/04 02:48:34;;;;;;;24.40;17.05;;;;;;;0.58;70.21;101010.06;122155;1152;22554;-76
2021/04/04 02:51:06;;;;;;;27.53;16.43;;;;;;;0.57;70.23;101011.00;122115;1152;22548;-76
2021/04/04 02:53:42;;;;;;;26.95;18.35;;;;;;;0.54;70.28;101011.17;122176;1152;24690;-76
2021/04/04 02:56:18;;;;;;;26.43;18.05;;;;;;;0.49;70.31;101004.55;122212;1152;22588;-76
2021/04/04 02:58:51;;;;;;;30.23;17.58;;;;;;;0.44;70.32;101015.22;122200;1152;22541;-76
2021/04/04 03:01:21;;;;;;;27.63;17.13;;;;;;;0.41;70.35;101011.02;122098;1152;22616;-76
2021/04/04 03:03:51;;;;;;;24.93;16.65;;;;;;;0.41;70.56;101011.02;122162;1155;22956;-76
2021/04/04 03:06:21;;;;;;;30.48;18.63;;;;;;;0.40;70.72;101003.30;122100;1154;22536;-76
2021/04/04 03:08:52;;;;;;;27.03;19.08;;;;;;;0.38;70.55;101006.00;122145;1152;22608;-76
2021/04/04 03:11:22;;;;;;;32.53;19.60;;;;;;;0.36;70.68;100997.44;122200;1155;24680;-76
2021/04/04 03:13:53;;;;;;;25.45;17.70;;;;;;;0.36;70.86;101002.63;122250;1152;24774;-76
2021/04/04 03:16:22;;;;;;;31.60;19.58;;;;;;;0.34;70.67;100996.70;122112;1153;22541;-75
2021/04/04 03:18:51;;;;;;;30.25;19.60;;;;;;;0.29;70.76;101001.31;122121;1151;22537;-76
2021/04/04 03:21:20;;;;;;;31.98;20.33;;;;;;;0.26;70.59;100998.88;122185;1152;23319;-76
2021/04/04 03:23:50;;;;;;;29.35;20.83;;;;;;;0.22;70.63;101002.58;122089;1155;22546;-76
2021/04/04 03:26:20;;;;;;;31.48;22.15;;;;;;;0.18;70.84;101001.08;122126;1152;23323;-76
2021/04/04 03:28:49;;;;;;;32.85;22.05;;;;;;;0.15;70.94;101003.84;122140;1152;22541;-76
2021/04/04 03:31:18;;;;;;;34.40;22.85;;;;;;;0.13;70.91;101003.91;122098;1152;22602;-76
2021/04/04 03:33:47;;;;;;;32.13;22.20;;;;;;;0.12;71.08;101001.41;122182;1152;24426;-76
2021/04/04 03:36:19;;;;;;;33.40;24.43;;;;;;;0.11;71.13;101004.95;122073;1154;22546;-76
2021/04/04 03:38:53;;;;;;;35.90;24.28;;;;;;;0.12;71.35;101006.61;122218;1154;25150;-76
2021/04/04 03:41:29;;;;;;;30.55;22.53;;;;;;;0.13;71.58;101013.47;122154;1151;22532;-76
2021/04/04 03:43:58;;;;;;;34.58;23.45;;;;;;;0.14;71.47;101012.57;122235;1152;22531;-76
2021/04/04 03:46:32;;;;;;;42.05;27.85;;;;;;;0.14;71.40;101009.97;122173;1152;22544;-76
2021/04/04 03:49:02;;;;;;;42.38;30.20;;;;;;;0.11;71.39;101007.54;122136;1152;22554;-76
2021/04/04 03:51:32;;;;;;;29.58;21.48;;;;;;;0.08;71.28;101007.71;121592;1155;22556;-76
2021/04/04 03:54:01;;;;;;;33.28;23.40;;;;;;;0.04;71.24;101011.41;121599;1156;25160;-76
2021/04/04 03:56:33;;;;;;;34.60;23.00;;;;;;;0.02;71.44;101002.84;121645;1155;22593;-76
2021/04/04 03:59:06;;;;;;;35.07;22.83;;;;;;;-0.01;71.60;101002.08;121987;1155;22545;-77
2021/04/04 04:01:39;;;;;;;37.58;23.35;;;;;;;-0.02;71.69;101005.61;121678;1155;22779;-77
2021/04/04 04:04:12;;;;;;;38.88;24.18;;;;;;;-0.03;71.94;101009.14;121565;1155;22555;-77
2021/04/04 04:06:48;;;;;;;38.93;23.85;;;;;;;-0.04;71.61;101007.44;122002;1155;22554;-76
2021/04/04 04:09:18;;;;;;;34.28;23.65;;;;;;;-0.05;71.73;101003.17;121664;1155;22613;-76
2021/04/04 04:11:49;;;;;;;33.73;24.07;;;;;;;-0.06;71.69;101006.70;121664;1157;22561;-75
2021/04/04 04:14:22;;;;;;;34.30;24.78;;;;;;;-0.07;71.76;101004.17;121695;1156;22624;-75
2021/04/04 04:16:51;;;;;;;37.08;25.43;;;;;;;-0.08;71.66;101013.73;122266;1152;22611;-76
2021/04/04 04:19:20;;;;;;;34.63;24.20;;;;;;;-0.10;71.31;101006.94;122083;1152;23703;-75
2021/04/04 04:21:49;;;;;;;33.73;24.30;;;;;;;-0.12;71.70;101009.63;122116;1152;22530;-74
2021/04/04 04:24:19;;;;;;;37.90;23.45;;;;;;;-0.14;71.82;101006.27;122088;1152;24448;-75
2021/04/04 04:26:52;;;;;;;34.68;24.20;;;;;;;-0.14;71.81;101015.81;122466;1152;22605;-75
2021/04/04 04:29:21;;;;;;;35.28;23.60;;;;;;;-0.17;71.95;101015.98;122067;1152;22857;-75
2021/04/04 04:31:56;;;;;;;32.68;23.35;;;;;;;-0.18;71.97;101020.34;122105;1152;24677;-75
2021/04/04 04:34:27;;;;;;;37.20;25.03;;;;;;;-0.18;72.02;101017.75;122223;1152;22533;-75
2021/04/04 04:36:57;;;;;;;38.63;26.18;;;;;;;-0.18;72.11;101022.94;122123;1152;24435;-77
2021/04/04 04:39:26;;;;;;;34.60;24.55;;;;;;;-0.17;72.27;101034.99;122171;1152;22662;-76
2021/04/04 04:41:54;;;;;;;38.18;24.75;;;;;;;-0.13;72.21;101025.31;122125;1152;24715;-76
2021/04/04 04:44:27;;;;;;;40.98;26.23;;;;;;;-0.12;72.86;101027.81;122118;1152;22537;-75
2021/04/04 04:46:56;;;;;;;43.70;28.45;;;;;;;-0.11;72.27;101018.25;122161;1152;22536;-75
2021/04/04 04:49:25;;;;;;;39.25;28.03;;;;;;;-0.08;72.33;101024.12;122092;1155;22541;-75
2021/04/04 04:51:54;;;;;;;36.50;26.05;;;;;;;-0.08;72.43;101029.31;122222;1152;24689;-75
2021/04/04 04:54:23;;;;;;;36.90;26.95;;;;;;;-0.06;72.69;101037.04;121650;1155;22555;-80
2021/04/04 04:56:52;;;;;;;36.60;26.93;;;;;;;-0.02;72.70;101031.58;122024;1155;22560;-80
2021/04/04 04:59:20;;;;;;;40.70;27.58;;;;;;;0.05;72.93;101044.24;121922;1155;22622;-76
2021/04/04 05:01:51;;;;;;;42.70;28.40;;;;;;;0.12;73.08;101036.02;121989;1156;22707;-75
2021/04/04 05:04:20;;;;;;;44.25;30.73;;;;;;;0.21;73.50;101032.92;121686;1155;22573;-75
2021/04/04 05:06:52;;;;;;;46.48;28.43;;;;;;;0.31;73.43;101041.05;121703;1155;24699;-75
2021/04/04 05:09:22;;;;;;;42.80;28.00;;;;;;;0.40;73.46;101039.69;121792;1155;22559;-76
2021/04/04 05:11:52;;;;;;;44.90;30.18;;;;;;;0.50;73.50;101046.08;121491;1157;23091;-76
2021/04/04 05:14:20;;;;;;;40.88;29.00;;;;;;;0.62;73.93;101049.73;121685;1156;22555;-75
2021/04/04 05:16:48;;;;;;;42.73;28.48;;;;;;;0.73;73.76;101049.95;121590;1155;22553;-75
2021/04/04 05:19:16;;;;;;;34.03;26.83;;;;;;;0.86;74.03;101053.52;121976;1158;24715;-76
2021/04/04 05:21:45;;;;;;;38.90;28.00;;;;;;;0.99;73.77;101053.66;121977;1157;22551;-75
2021/04/04 05:24:16;;;;;;;38.73;27.83;;;;;;;1.12;73.90;101054.62;121459;1158;24718;-74
2021/04/04 05:26:47;;;;;;;38.57;27.43;;;;;;;1.26;73.98;101051.20;121187;1158;22558;-75
2021/04/04 05:29:19;;;;;;;33.45;25.50;;;;;;;1.42;74.04;101043.32;121212;1158;22564;-75
2021/04/04 05:31:56;;;;;;;39.78;26.98;;;;;;;1.56;74.02;101040.71;121109;1162;22571;-76
2021/04/04 05:34:30;;;;;;;34.85;29.70;;;;;;;1.72;73.87;101037.19;121112;1161;22502;-76
2021/04/04 05:37:05;;;;;;;34.63;29.37;;;;;;;1.89;73.95;101035.20;121159;1158;24873;-75
2021/04/04 05:39:38;;;;;;;31.90;25.93;;;;;;;2.03;73.90;101036.11;121126;1158;24754;-76
2021/04/04 05:42:09;;;;;;;34.10;25.03;;;;;;;2.12;73.40;101038.15;121181;1158;22579;-75
2021/04/04 05:44:49;;;;;;;41.33;30.63;;;;;;;2.19;73.12;101047.25;121296;1159;22560;-75
2021/04/04 05:47:42;;;;;;;45.48;33.25;;;;;;;2.29;73.00;101035.30;121444;1158;22735;-75
2021/04/04 05:50:31;;;;;;;36.75;23.78;;;;;;;2.38;72.62;101030.45;121495;1160;22554;-75
2021/04/04 05:53:22;;;;;;;64.70;58.37;;;;;;;2.44;72.48;101032.67;121483;1158;24722;-75
2021/04/04 05:55:50;;;;;;;47.85;42.28;;;;;;;2.48;72.23;101031.53;121570;1155;22633;-75
2021/04/04 05:58:31;;;;;;;35.60;28.20;;;;;;;2.59;72.54;101029.05;121657;1155;22558;-75
2021/04/04 06:01:45;;;;;;;32.75;22.13;;;;;;;2.76;72.89;101036.61;122216;1152;22557;-75
2021/04/04 06:04:45;;;;;;;22.68;18.75;;;;;;;3.00;72.74;101047.23;122108;1152;22553;-77
2021/04/04 06:08:01;;;;;;;28.73;19.45;;;;;;;3.25;72.99;101035.95;122066;1155;24696;-76
2021/04/04 06:11:07;;;;;;;26.35;19.35;;;;;;;3.74;73.52;101032.59;121689;1155;22671;-75
2021/04/04 06:13:55;;;;;;;24.30;17.58;;;;;;;4.31;73.79;101039.03;121660;1155;22572;-76
2021/04/04 06:17:23;;;;;;;26.23;17.53;;;;;;;4.75;72.69;101041.97;121557;1155;23738;-76
2021/04/04 06:20:33;;;;;;;30.00;19.80;;;;;;;5.25;71.79;101034.73;121646;1155;24812;-76
2021/04/04 06:23:23;;;;;;;26.93;18.98;;;;;;;5.87;71.58;101031.66;121704;1155;25288;-76
2021/04/04 06:26:08;;;;;;;26.60;19.10;;;;;;;6.28;69.54;101036.27;121683;1156;22574;-75
2021/04/04 06:28:42;;;;;;;27.70;19.23;;;;;;;6.58;68.49;101038.20;121765;1152;22547;-76
2021/04/04 06:31:41;;;;;;;26.68;18.70;;;;;;;6.99;67.97;101039.20;122103;1152;23510;-76
2021/04/04 06:34:21;;;;;;;22.63;15.93;;;;;;;7.42;66.91;101035.59;122154;1152;22634;-76
2021/04/04 06:37:34;;;;;;;23.28;15.15;;;;;;;7.75;64.96;101037.13;121612;1155;22694;-77
2021/04/04 06:40:47;;;;;;;18.78;13.85;;;;;;;8.21;64.30;101034.91;121695;1155;22559;-75
2021/04/04 06:43:51;;;;;;;23.18;15.58;;;;;;;8.70;63.15;101044.56;121089;1161;23377;-74
2021/04/04 06:46:54;;;;;;;24.20;16.30;;;;;;;9.12;61.40;101046.05;120826;1164;22625;-74
2021/04/04 06:49:57;;;;;;;19.95;12.25;;;;;;;9.40;59.47;101039.06;120596;1168;22608;-80
2021/04/04 06:53:03;;;;;;;15.77;11.60;;;;;;;9.66;58.46;101037.45;120922;1166;23486;-84
2021/04/04 06:56:08;;;;;;;15.15;10.53;;;;;;;10.02;57.13;101037.53;121070;1164;22980;-79
2021/04/04 06:59:15;;;;;;;15.35;10.05;;;;;;;10.35;56.26;101038.75;120945;1164;22592;-79
2021/04/04 07:02:02;;;;;;;14.53;10.38;;;;;;;10.51;54.48;101032.81;120940;1161;24602;-75
2021/04/04 07:04:30;;;;;;;13.50;10.60;;;;;;;10.57;53.62;101047.23;120747;1164;22847;-76
2021/04/04 07:07:39;;;;;;;17.48;13.60;;;;;;;10.86;54.00;101049.63;120899;1161;24812;-75
2021/04/04 07:10:33;;;;;;;;;;;;;;;10.96;51.87;101039.82;120903;1166;24744;-76
2021/04/04 07:14:07;;;;;;;14.40;10.95;;;;;;;11.09;52.58;101039.39;120847;1164;23168;-76
2021/04/04 07:17:23;;;;;;;14.55;11.30;;;;;;;11.38;52.08;101044.39;120439;1168;24697;-76
2021/04/04 07:20:26;;;;;;;18.83;13.83;;;;;;;11.70;51.50;101046.40;120682;1164;22616;-76
2021/04/04 07:23:27;;;;;;;20.48;16.90;;;;;;;12.16;50.37;101054.03;120878;1159;23362;-76
2021/04/04 07:26:31;;;;;;;11.70;8.90;;;;;;;12.63;49.09;101056.16;121176;1159;22606;-76
2021/04/04 07:29:36;;;;;;;10.63;6.60;;;;;;;12.82;46.78;101041.73;121367;1158;22572;-76
2021/04/04 07:32:46;;;;;;;12.45;7.80;;;;;;;12.63;45.04;101048.20;121636;1155;25215;-77
2021/04/04 07:35:21;;;;;;;13.05;8.48;;;;;;;12.20;44.80;101058.05;121777;1155;22597;-76
2021/04/04 07:38:17;;;;;;;13.00;11.53;;;;;;;11.80;44.12;101061.34;122114;1153;22958;-75
2021/04/04 07:41:13;;;;;;;19.73;17.85;;;;;;;11.43;44.56;101050.06;122144;1155;22611;-75
2021/04/04 07:44:16;;;;;;;10.28;7.95;;;;;;;11.12;44.57;101054.95;121993;1153;22558;-74
2021/04/04 07:47:12;;;;;;;14.20;7.20;;;;;;;10.93;45.48;101055.13;121668;1155;22565;-75
2021/04/04 07:50:04;;;;;;;11.40;6.65;;;;;;;11.09;45.34;101060.55;121991;1157;22583;-75
2021/04/04 07:53:23;;;;;;;9.90;6.60;;;;;;;11.21;44.61;101059.33;121558;1156;22611;-75
2021/04/04 07:56:04;;;;;;;9.40;7.65;;;;;;;11.32;44.60;101052.95;121206;1160;23441;-75
2021/04/04 07:58:55;;;;;;;10.88;8.13;;;;;;;11.48;43.71;101049.58;121105;1161;22680;-75
2021/04/04 08:01:43;;;;;;;9.68;7.40;;;;;;;11.53;43.09;101057.89;121088;1161;24754;-75
2021/04/04 08:04:25;;;;;;;9.05;6.68;;;;;;;11.74;43.67;101055.67;120981;1159;22665;-75
2021/04/04 08:07:31;;;;;;;11.80;7.40;;;;;;;12.09;43.10;101060.97;121134;1158;22561;-75
2021/04/04 08:10:32;;;;;;;9.17;6.53;;;;;;;12.32;42.21;101051.44;120873;1161;22577;-76
2021/04/04 08:13:40;;;;;;;9.50;8.38;;;;;;;12.63;41.95;101056.16;120989;1162;22583;-76
2021/04/04 08:16:43;;;;;;;10.70;8.10;;;;;;;12.58;40.62;101048.67;120922;1159;22560;-76
2021/04/04 08:19:11;;;;;;;16.87;11.13;;;;;;;12.44;40.98;101052.80;121085;1161;22570;-74
2021/04/04 08:21:53;;;;;;;12.18;9.35;;;;;;;12.34;40.81;101051.29;121054;1161;23377;-75
2021/04/04 08:24:44;;;;;;;15.33;10.00;;;;;;;12.19;40.83;101054.55;121122;1161;23017;-75
2021/04/04 08:27:52;;;;;;;12.35;10.70;;;;;;;12.24;41.90;101054.08;121071;1159;22565;-76
2021/04/04 08:30:35;;;;;;;13.93;10.37;;;;;;;12.59;41.84;101049.50;120910;1161;22581;-78
2021/04/04 08:33:17;;;;;;;13.18;10.65;;;;;;;12.74;41.12;101047.88;121049;1158;22918;-75
2021/04/04 08:35:50;;;;;;;13.97;10.77;;;;;;;12.93;41.04;101054.68;121241;1158;22564;-74
2021/04/04 08:38:28;;;;;;;13.73;11.73;;;;;;;12.97;41.03;101050.70;121192;1159;22582;-75
2021/04/04 08:40:59;;;;;;;16.40;13.65;;;;;;;12.90;40.75;101052.36;121162;1161;22588;-75
2021/04/04 08:43:31;;;;;;;15.63;12.57;;;;;;;12.98;41.41;101056.82;121108;1161;22596;-76
2021/04/04 08:46:40;;;;;;;15.60;12.78;;;;;;;13.18;41.42;101051.00;121082;1161;24038;-75
2021/04/04 08:49:10;;;;;;;14.65;10.40;;;;;;;12.97;40.60;101058.66;121240;1161;25292;-76
2021/04/04 08:52:06;;;;;;;13.13;9.43;;;;;;;12.74;40.32;101057.66;121103;1161;22573;-76
2021/04/04 08:54:46;;;;;;;12.60;10.13;;;;;;;12.53;40.03;101061.61;121173;1158;22577;-75
2021/04/04 08:57:44;;;;;;;14.33;11.23;;;;;;;12.53;40.42;101056.30;121461;1158;24735;-75
2021/04/04 09:00:16;;;;;;;21.38;15.60;;;;;;;12.37;39.93;101061.56;121975;1155;25160;-75
2021/04/04 09:03:23;;;;;;;11.03;8.35;;;;;;;12.30;39.74;101049.97;121779;1155;22625;-75
2021/04/04 09:06:05;;;;;;;10.43;8.63;;;;;;;12.29;40.17;101059.70;121478;1158;22569;-75
2021/04/04 09:08:40;;;;;;;8.53;7.43;;;;;;;12.45;40.11;101046.50;122013;1154;22556;-76
2021/04/04 09:11:10;;;;;;;10.20;8.80;;;;;;;12.67;39.96;101052.17;121722;1155;23013;-75
2021/04/04 09:13:51;;;;;;;11.50;8.93;;;;;;;13.01;39.66;101053.84;121511;1158;22702;-76
2021/04/04 09:16:22;;;;;;;11.60;8.48;;;;;;;13.13;38.87;101048.04;121497;1158;22591;-77
2021/04/04 09:18:53;;;;;;;9.23;7.23;;;;;;;13.25;38.11;101048.53;121578;1158;22567;-75
2021/04/04 09:21:23;;;;;;;9.60;7.03;;;;;;;13.31;37.82;101045.21;121445;1158;22668;-77
2021/04/04 09:24:00;;;;;;;9.73;8.43;;;;;;;13.39;38.14;101033.75;121341;1155;23109;-76
2021/04/04 09:26:29;;;;;;;13.67;9.50;;;;;;;13.52;37.82;101038.53;121220;1158;22560;-76
2021/04/04 09:28:59;;;;;;;11.60;9.63;;;;;;;13.74;39.00;101042.29;121526;1158;22570;-76
2021/04/04 09:31:35;;;;;;;11.73;10.03;;;;;;;14.01;38.56;101030.39;121406;1155;22552;-76
2021/04/04 09:34:14;;;;;;;13.03;10.97;;;;;;;14.14;38.36;101030.65;121745;1155;22568;-77
2021/04/04 09:36:52;;;;;;;13.83;11.28;;;;;;;14.26;37.67;101017.78;121672;1155;24445;-76
2021/04/04 09:39:27;;;;;;;12.55;11.18;;;;;;;14.24;38.13;101010.00;121604;1155;22675;-75
2021/04/04 09:41:58;;;;;;;12.35;10.60;;;;;;;14.34;37.96;101015.09;121769;1155;24703;-75
2021/04/04 09:44:32;;;;;;;15.10;12.58;;;;;;;14.33;37.83;101005.47;121742;1154;24701;-75
2021/04/04 09:47:05;;;;;;;15.08;12.20;;;;;;;14.36;38.62;100999.77;122054;1152;22537;-76
2021/04/04 09:49:41;;;;;;;14.50;12.25;;;;;;;14.62;38.55;101006.61;122084;1155;24707;-76
2021/04/04 09:52:27;;;;;;;13.63;11.07;;;;;;;14.74;38.10;101006.01;122032;1155;22546;-76
2021/04/04 09:55:08;;;;;;;10.57;9.27;;;;;;;14.79;37.57;101000.14;121571;1156;22553;-75
2021/04/04 09:58:00;;;;;;;18.45;11.05;;;;;;;14.28;37.00;101005.16;121412;1156;23021;-75
2021/04/04 10:00:43;;;;;;;11.80;9.45;;;;;;;13.62;37.23;100994.85;121528;1156;22562;-75
2021/04/04 10:03:18;;;;;;;9.58;7.30;;;;;;;13.12;38.11;100992.48;121513;1158;24693;-74
2021/04/04 10:05:49;;;;;;;11.45;7.68;;;;;;;13.29;39.49;100993.30;121551;1158;22558;-76
2021/04/04 10:08:25;;;;;;;8.90;7.95;;;;;;;13.23;38.41;100992.14;121625;1155;22571;-75
2021/04/04 10:10:56;;;;;;;12.18;10.85;;;;;;;12.81;37.70;100987.06;121511;1158;22583;-75
2021/04/04 10:13:30;;;;;;;12.38;10.25;;;;;;;12.74;39.53;100980.77;121592;1157;24311;-75
2021/04/04 10:16:01;;;;;;;8.90;6.43;;;;;;;13.07;39.71;100984.22;121716;1155;22560;-75
2021/04/04 10:18:29;;;;;;;9.63;7.60;;;;;;;13.19;38.19;100981.05;121653;1155;22608;-75
2021/04/04 10:21:07;;;;;;;8.68;6.63;;;;;;;13.03;37.99;100967.81;121664;1155;22552;-77
2021/04/04 10:23:36;;;;;;;116.05;104.65;;;;;;;12.62;37.21;100970.48;121675;1155;24753;-76
2021/04/04 10:26:11;;;;;;;16.48;12.75;;;;;;;12.55;38.64;100964.19;121672;1158;24703;-74
2021/04/04 10:28:48;;;;;;;12.30;9.43;;;;;;;12.99;38.86;100961.17;121829;1151;23004;-76
2021/04/04 10:31:19;;;;;;;8.58;6.23;;;;;;;13.52;38.24;100962.38;122247;1151;24664;-77
2021/04/04 10:34:05;;;;;;;7.10;5.65;;;;;;;13.91;36.60;100950.91;122318;1152;22537;-75
2021/04/04 10:36:34;;;;;;;7.03;5.38;;;;;;;13.84;35.50;100948.13;121996;1156;22600;-75
2021/04/04 10:39:19;;;;;;;7.68;6.30;;;;;;;13.34;35.00;100940.56;121611;1155;22711;-75
2021/04/04 10:41:48;;;;;;;9.95;6.45;;;;;;;12.84;35.87;100941.66;121661;1155;22555;-75
2021/04/04 10:44:25;;;;;;;9.30;6.88;;;;;;;13.10;37.32;100931.66;121642;1158;24708;-77
2021/04/04 10:46:53;;;;;;;6.65;5.75;;;;;;;13.60;37.49;100937.64;121668;1155;22554;-76
2021/04/04 10:49:22;;;;;;;9.35;6.70;;;;;;;13.76;35.61;100937.56;121612;1155;22547;-77
2021/04/04 10:51:51;;;;;;;12.33;9.05;;;;;;;13.34;34.80;100929.95;121228;1158;25342;-75
2021/04/04 10:54:24;;;;;;;13.55;8.95;;;;;;;12.97;35.36;100931.35;121511;1155;24463;-75
2021/04/04 10:56:52;;;;;;;17.78;16.00;;;;;;;12.53;35.36;100929.09;121697;1155;23000;-76
2021/04/04 10:59:21;;;;;;;6.55;4.73;;;;;;;12.16;35.63;100930.41;121703;1155;22632;-76
2021/04/04 11:01:50;;;;;;;10.05;5.35;;;;;;;11.84;35.66;100936.46;121667;1155;22570;-75
2021/04/04 11:04:18;;;;;;;6.75;5.18;;;;;;;11.53;35.67;100941.47;121800;1155;22553;-76
2021/04/04 11:06:49;;;;;;;8.43;6.23;;;;;;;11.26;36.10;100929.25;122040;1155;22559;-74
2021/04/04 11:09:19;;;;;;;7.68;5.23;;;;;;;11.04;35.96;100933.29;122046;1153;22652;-79
2021/04/04 11:11:51;;;;;;;10.00;6.28;;;;;;;10.72;36.71;100928.61;121681;1155;22566;-76
2021/04/04 11:14:20;;;;;;;12.98;7.08;;;;;;;10.60;37.38;100928.05;121710;1155;24409;-75
2021/04/04 11:16:54;;;;;;;14.80;11.88;;;;;;;10.66;37.78;100923.94;121801;1155;24725;-76
2021/04/04 11:19:24;;;;;;;9.38;7.55;;;;;;;10.67;37.92;100926.44;121668;1157;22618;-75
2021/04/04 11:21:59;;;;;;;12.98;9.45;;;;;;;10.60;37.91;100920.13;122097;1156;22562;-75
2021/04/04 11:24:40;;;;;;;14.95;8.40;;;;;;;10.61;38.38;100911.20;121694;1155;22571;-75
2021/04/04 11:27:08;;;;;;;11.80;7.55;;;;;;;10.60;37.77;100902.45;121588;1155;22566;-74
2021/04/04 11:29:47;;;;;;;11.10;6.53;;;;;;;10.51;37.74;100897.26;121667;1155;24705;-74
2021/04/04 11:32:18;;;;;;;10.43;7.03;;;;;;;10.42;37.98;100899.00;121608;1155;22721;-74
2021/04/04 11:35:03;;;;;;;12.88;8.48;;;;;;;10.41;38.59;100893.88;121600;1157;22566;-75
2021/04/04 11:37:39;;;;;;;7.85;6.60;;;;;;;10.38;38.44;100896.83;122087;1152;24886;-75
2021/04/04 11:40:13;;;;;;;9.75;7.45;;;;;;;10.39;39.82;100890.55;122217;1152;23403;-76
2021/04/04 11:42:44;;;;;;;9.10;7.23;;;;;;;10.48;39.05;100898.39;122456;1152;22555;-75
2021/04/04 11:45:13;;;;;;;10.03;7.78;;;;;;;10.46;38.86;100884.53;121716;1158;23985;-75
2021/04/04 11:47:41;;;;;;;9.95;7.33;;;;;;;10.32;39.18;100887.70;121678;1157;22542;-75
2021/04/04 11:50:25;;;;;;;9.05;6.73;;;;;;;10.25;39.26;100883.98;121776;1154;22542;-75
2021/04/04 11:52:53;;;;;;;10.90;6.97;;;;;;;10.10;39.36;100878.42;121704;1155;22887;-75
2021/04/04 11:55:22;;;;;;;11.60;7.50;;;;;;;10.01;39.48;100876.68;121687;1155;22552;-75
2021/04/04 11:57:50;;;;;;;7.55;6.25;;;;;;;9.88;39.51;100867.32;121732;1157;25186;-75